sensor_id;sensor_type;location;lat;lon;timestamp;pressure;altitude;pressure_sealevel;temperature;humidity
42621;BME280;28252;53.336;-6.298;2023-04-01T00:00:16;99690.41;;;19.27;100.00
42621;BME280;28252;53.336;-6.298;2023-04-01T00:00:54;99689.59;;;19.27;100.00
42621;BME280;28252;53.336;-6.298;2023-04-01T00:01:31;99690.59;;;19.26;100.00
42621;BME280;28252;53.336;-6.298;2023-04-01T00:02:02;99695.81;;;19.27;100.00
42621;BME280;28252;53.336;-6.298;2023-04-01T00:02:35;99689.59;;;19.27;100.00
42621;BME280;28252;53.336;-6.298;2023-04-01T00:03:08;99703.09;;;19.27;100.00
42621;BME280;28252;53.336;-6.298;2023-04-01T00:03:39;99704.94;;;19.26;100.00
42621;BME280;28252;53.336;-6.298;2023-04-01T00:04:12;99694.34;;;19.25;100.00
42621;BME280;28252;53.336;-6.298;2023-04-01T00:04:43;99706.78;;;19.26;100.00
42621;BME280;28252;53.336;-6.298;2023-04-01T00:05:19;99696.84;;;19.26;100.00
42621;BME280;28252;53.336;-6.298;2023-04-01T00:05:53;99704.09;;;19.26;100.00
42621;BME280;28252;53.336;-6.298;2023-04-01T00:06:31;99705.97;;;19.25;100.00
42621;BME280;28252;53.336;-6.298;2023-04-01T00:07:05;99696.00;;;19.26;100.00
42621;BME280;28252;53.336;-6.298;2023-04-01T00:07:40;99699.75;;;19.25;100.00
42621;BME280;28252;53.336;-6.298;2023-04-01T00:08:13;99699.94;;;19.23;100.00
42621;BME280;28252;53.336;-6.298;2023-04-01T00:08:47;99697.22;;;19.23;100.00
42621;BME280;28252;53.336;-6.298;2023-04-01T00:09:58;99708.84;;;19.23;100.00
42621;BME280;28252;53.336;-6.298;2023-04-01T00:10:29;99708.84;;;19.23;100.00
42621;BME280;28252;53.336;-6.298;2023-04-01T00:11:02;99711.56;;;19.23;100.00
42621;BME280;28252;53.336;-6.298;2023-04-01T00:12:35;99704.50;;;19.22;100.00
42621;BME280;28252;53.336;-6.298;2023-04-01T00:13:06;99709.03;;;19.22;100.00
42621;BME280;28252;53.336;-6.298;2023-04-01T00:13:41;99718.00;;;19.22;100.00
42621;BME280;28252;53.336;-6.298;2023-04-01T00:14:16;99716.31;;;19.21;100.00
42621;BME280;28252;53.336;-6.298;2023-04-01T00:14:47;99708.22;;;19.21;100.00
42621;BME280;28252;53.336;-6.298;2023-04-01T00:15:20;99719.00;;;19.21;100.00
42621;BME280;28252;53.336;-6.298;2023-04-01T00:15:54;99709.22;;;19.20;100.00
42621;BME280;28252;53.336;-6.298;2023-04-01T00:16:27;99715.47;;;19.21;100.00
42621;BME280;28252;53.336;-6.298;2023-04-01T00:16:58;99709.22;;;19.20;100.00
42621;BME280;28252;53.336;-6.298;2023-04-01T00:17:34;99712.97;;;19.19;100.00
42621;BME280;28252;53.336;-6.298;2023-04-01T00:18:07;99714.63;;;19.20;100.00
42621;BME280;28252;53.336;-6.298;2023-04-01T00:18:41;99715.66;;;19.19;100.00
42621;BME280;28252;53.336;-6.298;2023-04-01T00:19:12;99712.13;;;19.19;100.00
42621;BME280;28252;53.336;-6.298;2023-04-01T00:19:43;99707.56;;;19.19;100.00
42621;BME280;28252;53.336;-6.298;2023-04-01T00:20:14;99712.13;;;19.19;100.00
42621;BME280;28252;53.336;-6.298;2023-04-01T00:20:48;99717.53;;;19.19;100.00
42621;BME280;28252;53.336;-6.298;2023-04-01T00:21:22;99712.13;;;19.19;100.00
42621;BME280;28252;53.336;-6.298;2023-04-01T00:21:53;99708.56;;;19.18;100.00
42621;BME280;28252;53.336;-6.298;2023-04-01T00:22:27;99706.91;;;19.17;100.00
42621;BME280;28252;53.336;-6.298;2023-04-01T00:23:00;99720.41;;;19.17;100.00
42621;BME280;28252;53.336;-6.298;2023-04-01T00:23:39;99714.16;;;19.17;100.00
42621;BME280;28252;53.336;-6.298;2023-04-01T00:24:12;99710.63;;;19.16;100.00
42621;BME280;28252;53.336;-6.298;2023-04-01T00:24:43;99714.16;;;19.17;100.00
42621;BME280;28252;53.336;-6.298;2023-04-01T00:25:18;99713.34;;;19.16;100.00
42621;BME280;28252;53.336;-6.298;2023-04-01T00:25:52;99712.50;;;19.16;100.00
42621;BME280;28252;53.336;-6.298;2023-04-01T00:26:27;99713.34;;;19.16;100.00
42621;BME280;28252;53.336;-6.298;2023-04-01T00:27:02;99714.34;;;19.15;100.00
42621;BME280;28252;53.336;-6.298;2023-04-01T00:27:38;99718.72;;;19.16;100.00
42621;BME280;28252;53.336;-6.298;2023-04-01T00:28:13;99711.66;;;19.15;100.00
42621;BME280;28252;53.336;-6.298;2023-04-01T00:28:47;99720.59;;;19.16;100.00
42621;BME280;28252;53.336;-6.298;2023-04-01T00:29:25;99716.22;;;19.15;100.00
42621;BME280;28252;53.336;-6.298;2023-04-01T00:29:59;99711.66;;;19.15;100.00
42621;BME280;28252;53.336;-6.298;2023-04-01T00:30:33;99712.69;;;19.14;100.00
42621;BME280;28252;53.336;-6.298;2023-04-01T00:31:07;99715.38;;;19.14;100.00
42621;BME280;28252;53.336;-6.298;2023-04-01T00:31:48;99721.78;;;19.13;100.00
42621;BME280;28252;53.336;-6.298;2023-04-01T00:32:26;99713.69;;;19.13;100.00
42621;BME280;28252;53.336;-6.298;2023-04-01T00:32:57;99711.84;;;19.14;100.00
42621;BME280;28252;53.336;-6.298;2023-04-01T00:33:30;99711.00;;;19.13;100.00
42621;BME280;28252;53.336;-6.298;2023-04-01T00:34:06;99714.75;;;19.12;100.00
42621;BME280;28252;53.336;-6.298;2023-04-01T00:34:39;99708.47;;;19.12;100.00
42621;BME280;28252;53.336;-6.298;2023-04-01T00:35:15;99712.03;;;19.12;100.00
42621;BME280;28252;53.336;-6.298;2023-04-01T00:35:48;99711.19;;;19.12;100.00
42621;BME280;28252;53.336;-6.298;2023-04-01T00:36:20;99721.16;;;19.11;100.00
42621;BME280;28252;53.336;-6.298;2023-04-01T00:36:59;99708.66;;;19.10;100.00
42621;BME280;28252;53.336;-6.298;2023-04-01T00:37:35;99713.25;;;19.10;100.00
42621;BME280;28252;53.336;-6.298;2023-04-01T00:38:09;99719.47;;;19.10;100.00
42621;BME280;28252;53.336;-6.298;2023-04-01T00:38:48;99717.63;;;19.11;100.00
42621;BME280;28252;53.336;-6.298;2023-04-01T00:39:22;99714.06;;;19.10;100.00
42621;BME280;28252;53.336;-6.298;2023-04-01T00:39:55;99715.94;;;19.10;100.00
42621;BME280;28252;53.336;-6.298;2023-04-01T00:40:27;99715.75;;;19.11;100.00
42621;BME280;28252;53.336;-6.298;2023-04-01T00:41:01;99721.16;;;19.11;100.00
42621;BME280;28252;53.336;-6.298;2023-04-01T00:41:37;99713.25;;;19.10;100.00
42621;BME280;28252;53.336;-6.298;2023-04-01T00:42:14;99721.34;;;19.10;100.00
42621;BME280;28252;53.336;-6.298;2023-04-01T00:42:52;99717.81;;;19.09;100.00
42621;BME280;28252;53.336;-6.298;2023-04-01T00:43:33;99717.81;;;19.09;100.00
42621;BME280;28252;53.336;-6.298;2023-04-01T00:44:22;99724.22;;;19.08;100.00
42621;BME280;28252;53.336;-6.298;2023-04-01T00:44:58;99721.53;;;19.08;100.00
42621;BME280;28252;53.336;-6.298;2023-04-01T00:45:48;99718.81;;;19.08;100.00
42621;BME280;28252;53.336;-6.298;2023-04-01T00:46:24;99721.53;;;19.08;100.00
42621;BME280;28252;53.336;-6.298;2023-04-01T00:47:03;99716.13;;;19.08;100.00
42621;BME280;28252;53.336;-6.298;2023-04-01T00:47:38;99726.09;;;19.08;100.00
42621;BME280;28252;53.336;-6.298;2023-04-01T00:48:18;99719.88;;;19.07;100.00
42621;BME280;28252;53.336;-6.298;2023-04-01T00:48:54;99719.88;;;19.07;100.00
42621;BME280;28252;53.336;-6.298;2023-04-01T00:49:29;99725.25;;;19.07;100.00
42621;BME280;28252;53.336;-6.298;2023-04-01T00:50:06;99719.88;;;19.07;100.00
42621;BME280;28252;53.336;-6.298;2023-04-01T00:50:43;99719.00;;;19.07;100.00
42621;BME280;28252;53.336;-6.298;2023-04-01T00:51:16;99724.41;;;19.07;100.00
42621;BME280;28252;53.336;-6.298;2023-04-01T00:51:52;99720.03;;;19.06;100.00
42621;BME280;28252;53.336;-6.298;2023-04-01T00:52:24;99723.56;;;19.06;100.00
42621;BME280;28252;53.336;-6.298;2023-04-01T00:52:57;99721.06;;;19.04;100.00
42621;BME280;28252;53.336;-6.298;2023-04-01T00:53:29;99719.19;;;19.05;100.00
42621;BME280;28252;53.336;-6.298;2023-04-01T00:54:05;99721.88;;;19.05;100.00
42621;BME280;28252;53.336;-6.298;2023-04-01T00:54:40;99722.75;;;19.06;100.00
42621;BME280;28252;53.336;-6.298;2023-04-01T00:55:20;99721.06;;;19.04;100.00
42621;BME280;28252;53.336;-6.298;2023-04-01T00:57:00;99719.41;;;19.03;100.00
42621;BME280;28252;53.336;-6.298;2023-04-01T00:57:40;99719.41;;;19.03;100.00
42621;BME280;28252;53.336;-6.298;2023-04-01T00:58:15;99726.63;;;19.03;100.00
42621;BME280;28252;53.336;-6.298;2023-04-01T00:58:52;99723.94;;;19.03;100.00
42621;BME280;28252;53.336;-6.298;2023-04-01T00:59:32;99722.28;;;19.02;100.00
42621;BME280;28252;53.336;-6.298;2023-04-01T01:00:11;99722.28;;;19.02;100.00
42621;BME280;28252;53.336;-6.298;2023-04-01T01:00:46;99728.50;;;19.02;100.00
42621;BME280;28252;53.336;-6.298;2023-04-01T01:01:19;99726.00;;;19.01;100.00
42621;BME280;28252;53.336;-6.298;2023-04-01T01:01:53;99725.16;;;19.00;100.00
42621;BME280;28252;53.336;-6.298;2023-04-01T01:02:24;99718.91;;;19.00;100.00
42621;BME280;28252;53.336;-6.298;2023-04-01T01:02:57;99718.91;;;19.00;100.00
42621;BME280;28252;53.336;-6.298;2023-04-01T01:03:28;99718.91;;;19.00;100.00
42621;BME280;28252;53.336;-6.298;2023-04-01T01:04:00;99727.00;;;19.00;100.00
42621;BME280;28252;53.336;-6.298;2023-04-01T01:04:35;99724.31;;;19.00;100.00
42621;BME280;28252;53.336;-6.298;2023-04-01T01:05:07;99711.84;;;18.99;100.00
42621;BME280;28252;53.336;-6.298;2023-04-01T01:06:03;99721.78;;;18.98;100.00
42621;BME280;28252;53.336;-6.298;2023-04-01T01:07:31;99722.66;;;18.99;100.00
42621;BME280;28252;53.336;-6.298;2023-04-01T01:08:15;99723.66;;;18.98;100.00
42621;BME280;28252;53.336;-6.298;2023-04-01T01:10:36;99723.66;;;18.98;100.00
42621;BME280;28252;53.336;-6.298;2023-04-01T01:11:11;99720.97;;;18.98;100.00
42621;BME280;28252;53.336;-6.298;2023-04-01T01:14:10;99722.84;;;18.97;100.00
42621;BME280;28252;53.336;-6.298;2023-04-01T01:14:44;99717.63;;;18.96;100.00
42621;BME280;28252;53.336;-6.298;2023-04-01T01:16:33;99718.63;;;18.95;100.00
42621;BME280;28252;53.336;-6.298;2023-04-01T01:18:34;99721.34;;;18.95;100.00
42621;BME280;28252;53.336;-6.298;2023-04-01T01:19:49;99721.34;;;18.95;100.00
42621;BME280;28252;53.336;-6.298;2023-04-01T01:20:40;99719.66;;;18.94;100.00
42621;BME280;28252;53.336;-6.298;2023-04-01T01:27:37;99726.25;;;18.91;100.00
42621;BME280;28252;53.336;-6.298;2023-04-01T01:30:44;99731.84;;;18.90;100.00
42621;BME280;28252;53.336;-6.298;2023-04-01T01:31:30;99730.00;;;18.90;100.00
42621;BME280;28252;53.336;-6.298;2023-04-01T01:32:54;99731.84;;;18.90;100.00
42621;BME280;28252;53.336;-6.298;2023-04-01T01:35:46;99734.53;;;18.90;100.00
42621;BME280;28252;53.336;-6.298;2023-04-01T01:36:22;99732.88;;;18.89;100.00
42621;BME280;28252;53.336;-6.298;2023-04-01T01:37:05;99738.28;;;18.89;100.00
42621;BME280;28252;53.336;-6.298;2023-04-01T01:37:40;99736.41;;;18.89;100.00
42621;BME280;28252;53.336;-6.298;2023-04-01T01:38:21;99738.28;;;18.89;100.00
42621;BME280;28252;53.336;-6.298;2023-04-01T01:39:06;99737.41;;;18.88;100.00
42621;BME280;28252;53.336;-6.298;2023-04-01T01:39:44;99736.59;;;18.88;100.00
42621;BME280;28252;53.336;-6.298;2023-04-01T01:40:18;99740.97;;;18.89;100.00
42621;BME280;28252;53.336;-6.298;2023-04-01T01:40:53;99733.06;;;18.87;100.00
42621;BME280;28252;53.336;-6.298;2023-04-01T01:41:28;99743.69;;;18.89;100.00
42621;BME280;28252;53.336;-6.298;2023-04-01T01:42:04;99742.00;;;18.88;100.00
42621;BME280;28252;53.336;-6.298;2023-04-01T01:42:43;99742.00;;;18.88;100.00
42621;BME280;28252;53.336;-6.298;2023-04-01T01:43:24;99740.34;;;18.87;100.00
42621;BME280;28252;53.336;-6.298;2023-04-01T01:44:00;99746.56;;;18.87;100.00
42621;BME280;28252;53.336;-6.298;2023-04-01T01:44:36;99740.34;;;18.87;100.00
42621;BME280;28252;53.336;-6.298;2023-04-01T01:45:11;99739.47;;;18.86;100.00
42621;BME280;28252;53.336;-6.298;2023-04-01T01:45:48;99744.03;;;18.85;100.00
42621;BME280;28252;53.336;-6.298;2023-04-01T01:46:23;99742.16;;;18.86;100.00
42621;BME280;28252;53.336;-6.298;2023-04-01T01:46:57;99740.50;;;18.85;100.00
42621;BME280;28252;53.336;-6.298;2023-04-01T01:47:35;99745.03;;;18.84;100.00
42621;BME280;28252;53.336;-6.298;2023-04-01T01:48:11;99749.44;;;18.85;100.00
42621;BME280;28252;53.336;-6.298;2023-04-01T01:48:42;99746.75;;;18.85;100.00
42621;BME280;28252;53.336;-6.298;2023-04-01T01:49:14;99748.78;;;18.83;100.00
42621;BME280;28252;53.336;-6.298;2023-04-01T01:49:51;99745.22;;;18.83;100.00
42621;BME280;28252;53.336;-6.298;2023-04-01T01:50:25;99733.59;;;18.82;100.00
42621;BME280;28252;53.336;-6.298;2023-04-01T01:51:03;99744.41;;;18.82;100.00
42621;BME280;28252;53.336;-6.298;2023-04-01T01:51:37;99744.41;;;18.82;100.00
42621;BME280;28252;53.336;-6.298;2023-04-01T01:52:13;99745.41;;;18.81;100.00
42621;BME280;28252;53.336;-6.298;2023-04-01T01:52:50;99742.72;;;18.81;100.00
42621;BME280;28252;53.336;-6.298;2023-04-01T01:53:26;99742.72;;;18.81;100.00
42621;BME280;28252;53.336;-6.298;2023-04-01T01:54:00;99746.41;;;18.80;100.00
42621;BME280;28252;53.336;-6.298;2023-04-01T01:54:31;99751.81;;;18.80;100.00
42621;BME280;28252;53.336;-6.298;2023-04-01T01:55:02;99742.91;;;18.80;100.00
42621;BME280;28252;53.336;-6.298;2023-04-01T01:55:45;99746.41;;;18.80;100.00
42621;BME280;28252;53.336;-6.298;2023-04-01T01:56:21;99745.59;;;18.80;100.00
42621;BME280;28252;53.336;-6.298;2023-04-01T01:56:57;99741.03;;;18.80;100.00
42621;BME280;28252;53.336;-6.298;2023-04-01T01:57:36;99745.59;;;18.80;100.00
42621;BME280;28252;53.336;-6.298;2023-04-01T01:59:06;99746.78;;;18.77;100.00
42621;BME280;28252;53.336;-6.298;2023-04-01T01:59:46;99744.09;;;18.77;100.00
42621;BME280;28252;53.336;-6.298;2023-04-01T02:00:24;99746.78;;;18.77;100.00
42621;BME280;28252;53.336;-6.298;2023-04-01T02:00:59;99747.63;;;18.78;100.00
42621;BME280;28252;53.336;-6.298;2023-04-01T02:01:35;99746.78;;;18.77;100.00
42621;BME280;28252;53.336;-6.298;2023-04-01T02:02:15;99740.56;;;18.77;100.00
42621;BME280;28252;53.336;-6.298;2023-04-01T02:02:51;99749.47;;;18.77;100.00
42621;BME280;28252;53.336;-6.298;2023-04-01T02:03:26;99745.13;;;18.76;100.00
42621;BME280;28252;53.336;-6.298;2023-04-01T02:03:58;99753.00;;;18.78;100.00
42621;BME280;28252;53.336;-6.298;2023-04-01T02:04:30;99746.78;;;18.77;100.00
42621;BME280;28252;53.336;-6.298;2023-04-01T02:05:02;99747.63;;;18.78;100.00
42621;BME280;28252;53.336;-6.298;2023-04-01T02:05:40;99747.63;;;18.78;100.00
42621;BME280;28252;53.336;-6.298;2023-04-01T02:06:14;99745.13;;;18.76;100.00
42621;BME280;28252;53.336;-6.298;2023-04-01T02:07:22;99747.63;;;18.78;100.00
42621;BME280;28252;53.336;-6.298;2023-04-01T02:07:59;99749.47;;;18.77;100.00
42621;BME280;28252;53.336;-6.298;2023-04-01T02:08:35;99744.09;;;18.77;100.00
42621;BME280;28252;53.336;-6.298;2023-04-01T02:09:11;99746.78;;;18.77;100.00
42621;BME280;28252;53.336;-6.298;2023-04-01T02:09:43;99757.56;;;18.77;100.00
42621;BME280;28252;53.336;-6.298;2023-04-01T02:10:18;99750.31;;;18.78;100.00
42621;BME280;28252;53.336;-6.298;2023-04-01T02:10:59;99746.59;;;18.79;100.00
42621;BME280;28252;53.336;-6.298;2023-04-01T02:12:06;99753.88;;;18.78;100.00
42621;BME280;28252;53.336;-6.298;2023-04-01T02:12:46;99752.19;;;18.77;100.00
42621;BME280;28252;53.336;-6.298;2023-04-01T02:13:31;99747.81;;;18.76;100.00
42621;BME280;28252;53.336;-6.298;2023-04-01T02:14:15;99745.13;;;18.76;100.00
42621;BME280;28252;53.336;-6.298;2023-04-01T02:14:57;99752.19;;;18.77;100.00
42621;BME280;28252;53.336;-6.298;2023-04-01T02:15:36;99753.88;;;18.78;100.00
42621;BME280;28252;53.336;-6.298;2023-04-01T02:16:11;99751.34;;;18.77;100.00
42621;BME280;28252;53.336;-6.298;2023-04-01T02:16:59;99750.53;;;18.76;100.00
42621;BME280;28252;53.336;-6.298;2023-04-01T02:17:38;99754.88;;;18.77;100.00
42621;BME280;28252;53.336;-6.298;2023-04-01T02:18:10;99757.56;;;18.77;100.00
42621;BME280;28252;53.336;-6.298;2023-04-01T02:18:44;99762.13;;;18.77;100.00
42621;BME280;28252;53.336;-6.298;2023-04-01T02:19:19;99759.44;;;18.77;100.00
42621;BME280;28252;53.336;-6.298;2023-04-01T02:20:05;99762.97;;;18.77;100.00
42621;BME280;28252;53.336;-6.298;2023-04-01T02:20:40;99762.97;;;18.77;100.00
42621;BME280;28252;53.336;-6.298;2023-04-01T02:21:14;99761.31;;;18.76;100.00
42621;BME280;28252;53.336;-6.298;2023-04-01T02:21:50;99765.84;;;18.76;100.00
42621;BME280;28252;53.336;-6.298;2023-04-01T02:22:30;99768.53;;;18.76;100.00
42621;BME280;28252;53.336;-6.298;2023-04-01T02:23:04;99766.72;;;18.76;100.00
42621;BME280;28252;53.336;-6.298;2023-04-01T02:23:43;99766.72;;;18.76;100.00
42621;BME280;28252;53.336;-6.298;2023-04-01T02:24:20;99772.09;;;18.76;100.00
42621;BME280;28252;53.336;-6.298;2023-04-01T02:24:57;99764.19;;;18.75;100.00
42621;BME280;28252;53.336;-6.298;2023-04-01T02:25:33;99766.72;;;18.76;100.00
42621;BME280;28252;53.336;-6.298;2023-04-01T02:26:05;99772.09;;;18.76;100.00
42621;BME280;28252;53.336;-6.298;2023-04-01T02:26:40;99773.13;;;18.75;100.00
42621;BME280;28252;53.336;-6.298;2023-04-01T02:27:13;99769.59;;;18.75;100.00
42621;BME280;28252;53.336;-6.298;2023-04-01T02:27:49;99775.81;;;18.75;100.00
42621;BME280;28252;53.336;-6.298;2023-04-01T02:28:22;99782.88;;;18.76;100.00
42621;BME280;28252;53.336;-6.298;2023-04-01T02:28:59;99773.13;;;18.75;100.00
42621;BME280;28252;53.336;-6.298;2023-04-01T02:29:37;99776.63;;;18.76;100.00
42621;BME280;28252;53.336;-6.298;2023-04-01T02:30:15;99773.13;;;18.75;100.00
42621;BME280;28252;53.336;-6.298;2023-04-01T02:30:50;99774.13;;;18.74;100.00
42621;BME280;28252;53.336;-6.298;2023-04-01T02:31:22;99771.41;;;18.74;100.00
42621;BME280;28252;53.336;-6.298;2023-04-01T02:31:54;99778.69;;;18.74;100.00
42621;BME280;28252;53.336;-6.298;2023-04-01T02:32:28;99775.81;;;18.75;100.00
42621;BME280;28252;53.336;-6.298;2023-04-01T02:33:00;99773.28;;;18.74;100.00
42621;BME280;28252;53.336;-6.298;2023-04-01T02:33:32;99772.47;;;18.73;100.00
42621;BME280;28252;53.336;-6.298;2023-04-01T02:34:03;99774.13;;;18.74;100.00
42621;BME280;28252;53.336;-6.298;2023-04-01T02:34:35;99777.84;;;18.73;100.00
42621;BME280;28252;53.336;-6.298;2023-04-01T02:35:09;99779.50;;;18.74;100.00
42621;BME280;28252;53.336;-6.298;2023-04-01T02:35:44;99777.84;;;18.73;100.00
42621;BME280;28252;53.336;-6.298;2023-04-01T02:36:17;99780.56;;;18.73;100.00
42621;BME280;28252;53.336;-6.298;2023-04-01T02:36:50;99775.16;;;18.73;100.00
42621;BME280;28252;53.336;-6.298;2023-04-01T02:37:30;99773.47;;;18.72;100.00
42621;BME280;28252;53.336;-6.298;2023-04-01T02:38:05;99776.16;;;18.72;100.00
42621;BME280;28252;53.336;-6.298;2023-04-01T02:38:39;99781.56;;;18.72;100.00
42621;BME280;28252;53.336;-6.298;2023-04-01T02:39:15;99778.88;;;18.72;100.00
42621;BME280;28252;53.336;-6.298;2023-04-01T02:39:49;99777.22;;;18.71;100.00
42621;BME280;28252;53.336;-6.298;2023-04-01T02:40:20;99776.16;;;18.72;100.00
42621;BME280;28252;53.336;-6.298;2023-04-01T02:40:56;99782.59;;;18.71;100.00
42621;BME280;28252;53.336;-6.298;2023-04-01T02:41:29;99780.72;;;18.72;100.00
42621;BME280;28252;53.336;-6.298;2023-04-01T02:42:03;99779.91;;;18.71;100.00
42621;BME280;28252;53.336;-6.298;2023-04-01T02:42:40;99787.13;;;18.71;100.00
42621;BME280;28252;53.336;-6.298;2023-04-01T02:43:14;99783.59;;;18.70;100.00
42621;BME280;28252;53.336;-6.298;2023-04-01T02:43:50;99780.91;;;18.70;100.00
42621;BME280;28252;53.336;-6.298;2023-04-01T02:44:26;99782.78;;;18.70;100.00
42621;BME280;28252;53.336;-6.298;2023-04-01T02:44:57;99781.91;;;18.69;100.00
42621;BME280;28252;53.336;-6.298;2023-04-01T02:45:30;99781.91;;;18.69;100.00
42621;BME280;28252;53.336;-6.298;2023-04-01T02:46:04;99781.09;;;18.69;100.00
42621;BME280;28252;53.336;-6.298;2023-04-01T02:46:37;99798.97;;;18.70;100.00
42621;BME280;28252;53.336;-6.298;2023-04-01T02:47:11;99785.66;;;18.68;100.00
42621;BME280;28252;53.336;-6.298;2023-04-01T02:47:49;99787.31;;;18.69;100.00
42621;BME280;28252;53.336;-6.298;2023-04-01T02:48:22;99784.63;;;18.69;100.00
42621;BME280;28252;53.336;-6.298;2023-04-01T02:48:55;99784.81;;;18.67;100.00
42621;BME280;28252;53.336;-6.298;2023-04-01T02:49:33;99782.97;;;18.68;100.00
42621;BME280;28252;53.336;-6.298;2023-04-01T02:50:06;99786.50;;;18.69;100.00
42621;BME280;28252;53.336;-6.298;2023-04-01T02:50:40;99785.66;;;18.68;100.00
42621;BME280;28252;53.336;-6.298;2023-04-01T02:51:15;99791.06;;;18.68;100.00
42621;BME280;28252;53.336;-6.298;2023-04-01T02:51:46;99785.66;;;18.68;100.00
42621;BME280;28252;53.336;-6.298;2023-04-01T02:52:17;99782.28;;;18.66;100.00
42621;BME280;28252;53.336;-6.298;2023-04-01T02:52:53;99789.38;;;18.67;100.00
42621;BME280;28252;53.336;-6.298;2023-04-01T02:53:24;99783.13;;;18.66;100.00
42621;BME280;28252;53.336;-6.298;2023-04-01T02:54:00;99790.19;;;18.67;100.00
42621;BME280;28252;53.336;-6.298;2023-04-01T02:54:36;99788.53;;;18.66;100.00
42621;BME280;28252;53.336;-6.298;2023-04-01T02:58:58;99788.06;;;18.63;100.00
42621;BME280;28252;53.336;-6.298;2023-04-01T02:59:29;99792.59;;;18.62;100.00
42621;BME280;28252;53.336;-6.298;2023-04-01T03:00:02;99793.47;;;18.63;100.00
42621;BME280;28252;53.336;-6.298;2023-04-01T03:00:34;99787.19;;;18.62;100.00
42621;BME280;28252;53.336;-6.298;2023-04-01T03:01:09;99788.06;;;18.63;100.00
42621;BME280;28252;53.336;-6.298;2023-04-01T03:01:47;99793.47;;;18.63;100.00
42621;BME280;28252;53.336;-6.298;2023-04-01T03:02:21;99793.47;;;18.63;100.00
42621;BME280;28252;53.336;-6.298;2023-04-01T03:02:54;99797.16;;;18.62;100.00
42621;BME280;28252;53.336;-6.298;2023-04-01T03:03:27;99792.78;;;18.61;100.00
42621;BME280;28252;53.336;-6.298;2023-04-01T03:03:58;99790.94;;;18.61;100.00
42621;BME280;28252;53.336;-6.298;2023-04-01T03:04:34;99795.47;;;18.61;100.00
42621;BME280;28252;53.336;-6.298;2023-04-01T03:05:09;99790.94;;;18.61;100.00
42621;BME280;28252;53.336;-6.298;2023-04-01T03:05:45;99796.34;;;18.61;100.00
42621;BME280;28252;53.336;-6.298;2023-04-01T03:06:16;99791.78;;;18.62;100.00
42621;BME280;28252;53.336;-6.298;2023-04-01T03:06:52;99794.47;;;18.62;100.00
42621;BME280;28252;53.336;-6.298;2023-04-01T03:07:25;99796.50;;;18.60;100.00
42621;BME280;28252;53.336;-6.298;2023-04-01T03:07:59;99797.34;;;18.60;100.00
42621;BME280;28252;53.336;-6.298;2023-04-01T03:08:32;99794.66;;;18.60;100.00
42621;BME280;28252;53.336;-6.298;2023-04-01T03:09:07;99798.16;;;18.61;100.00
42621;BME280;28252;53.336;-6.298;2023-04-01T03:09:43;99795.47;;;18.61;100.00
42621;BME280;28252;53.336;-6.298;2023-04-01T03:10:14;99806.25;;;18.61;100.00
42621;BME280;28252;53.336;-6.298;2023-04-01T03:10:50;99798.16;;;18.61;100.00
42621;BME280;28252;53.336;-6.298;2023-04-01T03:11:23;99797.16;;;18.62;100.00
42621;BME280;28252;53.336;-6.298;2023-04-01T03:11:59;99801.91;;;18.60;100.00
42621;BME280;28252;53.336;-6.298;2023-04-01T03:12:32;99800.88;;;18.61;100.00
42621;BME280;28252;53.336;-6.298;2023-04-01T03:13:08;99800.88;;;18.61;100.00
42621;BME280;28252;53.336;-6.298;2023-04-01T03:13:39;99799.22;;;18.60;100.00
42621;BME280;28252;53.336;-6.298;2023-04-01T03:14:17;99807.31;;;18.60;100.00
42621;BME280;28252;53.336;-6.298;2023-04-01T03:14:51;99804.59;;;18.60;100.00
42621;BME280;28252;53.336;-6.298;2023-04-01T03:15:24;99804.59;;;18.60;100.00
42621;BME280;28252;53.336;-6.298;2023-04-01T03:15:55;99804.59;;;18.60;100.00
42621;BME280;28252;53.336;-6.298;2023-04-01T03:16:31;99804.59;;;18.60;100.00
42621;BME280;28252;53.336;-6.298;2023-04-01T03:17:04;99803.78;;;18.59;100.00
42621;BME280;28252;53.336;-6.298;2023-04-01T03:17:39;99804.59;;;18.60;100.00
42621;BME280;28252;53.336;-6.298;2023-04-01T03:18:10;99805.59;;;18.59;100.00
42621;BME280;28252;53.336;-6.298;2023-04-01T03:18:48;99812.03;;;18.58;100.00
42621;BME280;28252;53.336;-6.298;2023-04-01T03:19:26;99806.66;;;18.58;100.00
42621;BME280;28252;53.336;-6.298;2023-04-01T03:19:57;99800.41;;;18.57;100.00
42621;BME280;28252;53.336;-6.298;2023-04-01T03:20:31;99804.97;;;18.57;100.00
42621;BME280;28252;53.336;-6.298;2023-04-01T03:21:15;99810.34;;;18.57;100.00
42621;BME280;28252;53.336;-6.298;2023-04-01T03:21:51;99810.34;;;18.57;100.00
42621;BME280;28252;53.336;-6.298;2023-04-01T03:22:22;99808.66;;;18.56;100.00
42621;BME280;28252;53.336;-6.298;2023-04-01T03:22:58;99812.41;;;18.55;100.00
42621;BME280;28252;53.336;-6.298;2023-04-01T03:23:34;99811.75;;;18.53;100.00
42621;BME280;28252;53.336;-6.298;2023-04-01T03:24:07;99808.00;;;18.54;100.00
42621;BME280;28252;53.336;-6.298;2023-04-01T03:24:42;99810.72;;;18.54;100.00
42621;BME280;28252;53.336;-6.298;2023-04-01T03:25:13;99814.44;;;18.53;100.00
42621;BME280;28252;53.336;-6.298;2023-04-01T03:25:47;99815.28;;;18.53;100.00
42621;BME280;28252;53.336;-6.298;2023-04-01T03:26:21;99813.59;;;18.52;100.00
42621;BME280;28252;53.336;-6.298;2023-04-01T03:26:55;99815.44;;;18.52;100.00
42621;BME280;28252;53.336;-6.298;2023-04-01T03:27:26;99815.44;;;18.52;100.00
42621;BME280;28252;53.336;-6.298;2023-04-01T03:28:02;99814.44;;;18.53;100.00
42621;BME280;28252;53.336;-6.298;2023-04-01T03:28:34;99823.53;;;18.52;100.00
42621;BME280;28252;53.336;-6.298;2023-04-01T03:29:13;99812.75;;;18.52;100.00
42621;BME280;28252;53.336;-6.298;2023-04-01T03:29:46;99816.47;;;18.51;100.00
42621;BME280;28252;53.336;-6.298;2023-04-01T03:30:19;99818.97;;;18.52;100.00
42621;BME280;28252;53.336;-6.298;2023-04-01T03:30:55;99819.16;;;18.51;100.00